sensor_id;sensor_type;location;lat;lon;timestamp;pressure;altitude;pressure_sealevel;temperature;humidity
59110;BME280;44895;47.438;18.978;2023-07-24T00:00:07;99796.28;;;20.73;100.00
59110;BME280;44895;47.438;18.978;2023-07-24T00:03:11;99782.75;;;20.68;100.00
59110;BME280;44895;47.438;18.978;2023-07-24T00:06:15;99774.03;;;20.62;100.00
59110;BME280;44895;47.438;18.978;2023-07-24T00:09:19;99775.56;;;20.60;100.00
59110;BME280;44895;47.438;18.978;2023-07-24T00:12:23;99788.38;;;20.72;100.00
59110;BME280;44895;47.438;18.978;2023-07-24T00:15:26;99778.13;;;20.72;100.00
59110;BME280;44895;47.438;18.978;2023-07-24T00:18:30;99778.41;;;20.67;100.00
59110;BME280;44895;47.438;18.978;2023-07-24T00:21:34;99781.16;;;20.67;100.00
59110;BME280;44895;47.438;18.978;2023-07-24T00:24:38;99784.56;;;20.57;100.00
59110;BME280;44895;47.438;18.978;2023-07-24T00:27:41;99777.13;;;20.61;100.00
59110;BME280;44895;47.438;18.978;2023-07-24T00:30:45;99770.53;;;20.42;100.00
59110;BME280;44895;47.438;18.978;2023-07-24T00:33:49;99772.00;;;20.36;100.00
59110;BME280;44895;47.438;18.978;2023-07-24T00:36:53;99761.34;;;20.34;100.00
59110;BME280;44895;47.438;18.978;2023-07-24T00:39:57;99761.28;;;20.31;100.00
59110;BME280;44895;47.438;18.978;2023-07-24T00:43:01;99757.38;;;20.32;100.00
59110;BME280;44895;47.438;18.978;2023-07-24T00:46:05;99758.16;;;20.32;100.00
59110;BME280;44895;47.438;18.978;2023-07-24T00:49:09;99757.00;;;20.33;100.00
59110;BME280;44895;47.438;18.978;2023-07-24T00:52:13;99757.63;;;20.27;100.00
59110;BME280;44895;47.438;18.978;2023-07-24T00:55:17;99745.22;;;20.13;100.00
59110;BME280;44895;47.438;18.978;2023-07-24T00:58:21;99745.69;;;20.19;100.00
59110;BME280;44895;47.438;18.978;2023-07-24T01:01:25;99742.91;;;20.15;100.00
59110;BME280;44895;47.438;18.978;2023-07-24T01:04:30;99747.06;;;20.29;100.00
59110;BME280;44895;47.438;18.978;2023-07-24T01:07:35;99751.72;;;20.25;100.00
59110;BME280;44895;47.438;18.978;2023-07-24T01:10:40;99739.69;;;20.36;100.00
59110;BME280;44895;47.438;18.978;2023-07-24T01:13:51;99738.00;;;20.28;100.00
59110;BME280;44895;47.438;18.978;2023-07-24T01:17:00;99753.66;;;20.24;100.00
59110;BME280;44895;47.438;18.978;2023-07-24T01:20:08;99746.13;;;20.21;100.00
59110;BME280;44895;47.438;18.978;2023-07-24T01:23:37;99751.53;;;20.14;100.00
59110;BME280;44895;47.438;18.978;2023-07-24T01:26:43;99747.06;;;19.86;100.00
59110;BME280;44895;47.438;18.978;2023-07-24T01:29:47;99741.25;;;19.91;100.00
59110;BME280;44895;47.438;18.978;2023-07-24T01:32:51;99739.38;;;19.95;100.00
59110;BME280;44895;47.438;18.978;2023-07-24T01:35:58;99736.56;;;19.92;100.00
59110;BME280;44895;47.438;18.978;2023-07-24T01:39:02;99734.59;;;19.92;100.00
59110;BME280;44895;47.438;18.978;2023-07-24T01:42:06;99730.47;;;19.82;100.00
59110;BME280;44895;47.438;18.978;2023-07-24T01:45:10;99731.34;;;19.86;100.00
59110;BME280;44895;47.438;18.978;2023-07-24T01:48:14;99736.06;;;19.86;100.00
59110;BME280;44895;47.438;18.978;2023-07-24T01:51:18;99738.66;;;19.79;100.00
59110;BME280;44895;47.438;18.978;2023-07-24T01:54:22;99733.16;;;19.39;100.00
59110;BME280;44895;47.438;18.978;2023-07-24T01:57:26;99739.53;;;19.44;100.00
59110;BME280;44895;47.438;18.978;2023-07-24T02:00:30;99737.34;;;19.53;100.00
59110;BME280;44895;47.438;18.978;2023-07-24T02:03:36;99731.56;;;19.38;100.00
59110;BME280;44895;47.438;18.978;2023-07-24T02:06:43;99733.28;;;19.47;100.00
59110;BME280;44895;47.438;18.978;2023-07-24T02:09:46;99733.97;;;19.40;100.00
59110;BME280;44895;47.438;18.978;2023-07-24T02:12:50;99736.22;;;19.34;100.00
59110;BME280;44895;47.438;18.978;2023-07-24T02:15:54;99739.59;;;19.28;100.00
59110;BME280;44895;47.438;18.978;2023-07-24T02:18:58;99733.72;;;19.10;100.00
59110;BME280;44895;47.438;18.978;2023-07-24T02:22:01;99742.25;;;19.24;100.00
59110;BME280;44895;47.438;18.978;2023-07-24T02:25:06;99736.72;;;19.20;100.00
59110;BME280;44895;47.438;18.978;2023-07-24T02:28:10;99734.94;;;19.12;100.00
59110;BME280;44895;47.438;18.978;2023-07-24T02:31:14;99726.69;;;19.12;100.00
59110;BME280;44895;47.438;18.978;2023-07-24T02:34:17;99736.72;;;19.20;100.00
59110;BME280;44895;47.438;18.978;2023-07-24T02:37:21;99736.34;;;19.22;100.00
59110;BME280;44895;47.438;18.978;2023-07-24T02:40:25;99740.13;;;19.33;100.00
59110;BME280;44895;47.438;18.978;2023-07-24T02:43:28;99732.44;;;19.43;100.00
59110;BME280;44895;47.438;18.978;2023-07-24T02:46:32;99733.25;;;19.43;100.00
59110;BME280;44895;47.438;18.978;2023-07-24T02:49:36;99732.22;;;19.51;100.00
59110;BME280;44895;47.438;18.978;2023-07-24T02:52:40;99740.97;;;19.37;100.00
59110;BME280;44895;47.438;18.978;2023-07-24T02:55:44;99735.47;;;19.37;100.00
59110;BME280;44895;47.438;18.978;2023-07-24T02:58:47;99741.44;;;19.39;100.00
59110;BME280;44895;47.438;18.978;2023-07-24T03:01:51;99738.16;;;19.34;100.00
59110;BME280;44895;47.438;18.978;2023-07-24T03:04:55;99725.53;;;19.33;100.00
59110;BME280;44895;47.438;18.978;2023-07-24T03:07:59;99735.47;;;19.18;100.00
59110;BME280;44895;47.438;18.978;2023-07-24T03:11:05;99727.88;;;19.31;100.00
59110;BME280;44895;47.438;18.978;2023-07-24T03:14:09;99727.44;;;19.29;100.00
59110;BME280;44895;47.438;18.978;2023-07-24T03:17:13;99717.16;;;19.26;100.00
59110;BME280;44895;47.438;18.978;2023-07-24T03:20:20;99724.22;;;19.27;100.00
59110;BME280;44895;47.438;18.978;2023-07-24T03:23:24;99721.06;;;19.25;100.00
59110;BME280;44895;47.438;18.978;2023-07-24T03:26:28;99723.06;;;19.08;100.00
59110;BME280;44895;47.438;18.978;2023-07-24T03:29:32;99731.41;;;19.12;100.00
59110;BME280;44895;47.438;18.978;2023-07-24T03:32:36;99724.94;;;19.04;100.00
59110;BME280;44895;47.438;18.978;2023-07-24T03:35:41;99726.03;;;18.99;100.00
59110;BME280;44895;47.438;18.978;2023-07-24T03:38:45;99708.94;;;19.10;100.00
59110;BME280;44895;47.438;18.978;2023-07-24T03:41:49;99717.06;;;18.86;100.00
59110;BME280;44895;47.438;18.978;2023-07-24T03:44:53;99715.09;;;19.03;100.00
59110;BME280;44895;47.438;18.978;2023-07-24T03:47:57;99716.91;;;19.15;100.00
59110;BME280;44895;47.438;18.978;2023-07-24T03:51:01;99710.69;;;19.18;100.00
59110;BME280;44895;47.438;18.978;2023-07-24T03:54:05;99703.69;;;19.20;100.00
59110;BME280;44895;47.438;18.978;2023-07-24T03:57:08;99702.31;;;18.95;100.00
59110;BME280;44895;47.438;18.978;2023-07-24T04:00:13;99712.63;;;18.98;100.00
59110;BME280;44895;47.438;18.978;2023-07-24T04:03:16;99711.97;;;19.04;100.00
59110;BME280;44895;47.438;18.978;2023-07-24T04:06:20;99712.34;;;19.22;100.00
59110;BME280;44895;47.438;18.978;2023-07-24T04:09:24;99709.47;;;19.35;100.00
59110;BME280;44895;47.438;18.978;2023-07-24T04:12:29;99704.75;;;19.35;100.00
59110;BME280;44895;47.438;18.978;2023-07-24T04:15:33;99707.44;;;19.32;100.00
59110;BME280;44895;47.438;18.978;2023-07-24T04:18:36;99706.25;;;19.72;100.00
59110;BME280;44895;47.438;18.978;2023-07-24T04:21:40;99702.03;;;19.98;100.00
59110;BME280;44895;47.438;18.978;2023-07-24T04:24:44;99697.91;;;20.11;100.00
59110;BME280;44895;47.438;18.978;2023-07-24T04:27:48;99697.91;;;20.11;100.00
59110;BME280;44895;47.438;18.978;2023-07-24T04:30:51;99700.06;;;20.21;100.00
59110;BME280;44895;47.438;18.978;2023-07-24T04:33:55;99695.34;;;20.72;100.00
59110;BME280;44895;47.438;18.978;2023-07-24T04:36:59;99697.44;;;20.79;100.00
59110;BME280;44895;47.438;18.978;2023-07-24T04:40:04;99692.25;;;20.74;100.00
59110;BME280;44895;47.438;18.978;2023-07-24T04:43:08;99692.28;;;20.77;100.00
59110;BME280;44895;47.438;18.978;2023-07-24T04:46:11;99699.28;;;20.98;100.00
59110;BME280;44895;47.438;18.978;2023-07-24T04:49:16;99694.03;;;21.20;100.00
59110;BME280;44895;47.438;18.978;2023-07-24T04:52:19;99694.53;;;21.29;100.00
59110;BME280;44895;47.438;18.978;2023-07-24T04:55:23;99702.91;;;21.36;100.00
59110;BME280;44895;47.438;18.978;2023-07-24T04:58:27;99700.31;;;21.50;100.00
59110;BME280;44895;47.438;18.978;2023-07-24T05:01:30;99706.78;;;21.62;100.00
59110;BME280;44895;47.438;18.978;2023-07-24T05:04:34;99710.41;;;21.70;100.00
59110;BME280;44895;47.438;18.978;2023-07-24T05:07:38;99707.16;;;21.98;100.00
59110;BME280;44895;47.438;18.978;2023-07-24T05:10:41;99706.81;;;22.03;100.00
59110;BME280;44895;47.438;18.978;2023-07-24T05:13:45;99708.19;;;22.24;100.00
59110;BME280;44895;47.438;18.978;2023-07-24T05:16:49;99698.78;;;22.36;100.00
59110;BME280;44895;47.438;18.978;2023-07-24T05:19:53;99699.00;;;22.57;100.00
59110;BME280;44895;47.438;18.978;2023-07-24T05:22:56;99699.34;;;22.56;100.00
59110;BME280;44895;47.438;18.978;2023-07-24T05:26:02;99696.59;;;23.22;100.00
59110;BME280;44895;47.438;18.978;2023-07-24T05:29:06;99695.53;;;23.49;100.00
59110;BME280;44895;47.438;18.978;2023-07-24T05:32:10;99688.91;;;24.22;100.00
59110;BME280;44895;47.438;18.978;2023-07-24T05:35:13;99697.00;;;25.41;100.00
59110;BME280;44895;47.438;18.978;2023-07-24T05:38:17;99682.75;;;29.78;100.00
59110;BME280;44895;47.438;18.978;2023-07-24T05:41:21;99682.44;;;34.17;90.31
59110;BME280;44895;47.438;18.978;2023-07-24T05:44:25;99670.63;;;35.82;63.59
59110;BME280;44895;47.438;18.978;2023-07-24T05:47:29;99674.53;;;38.27;54.34
59110;BME280;44895;47.438;18.978;2023-07-24T05:50:32;99677.78;;;40.33;47.04
59110;BME280;44895;47.438;18.978;2023-07-24T05:53:36;99674.44;;;40.28;44.06
59110;BME280;44895;47.438;18.978;2023-07-24T05:56:40;99665.91;;;37.65;48.69
59110;BME280;44895;47.438;18.978;2023-07-24T05:59:44;99672.63;;;39.88;45.78
59110;BME280;44895;47.438;18.978;2023-07-24T06:02:48;99673.81;;;40.13;43.89
59110;BME280;44895;47.438;18.978;2023-07-24T06:05:52;99654.31;;;39.19;45.45
59110;BME280;44895;47.438;18.978;2023-07-24T06:08:57;99655.84;;;39.84;44.47
59110;BME280;44895;47.438;18.978;2023-07-24T06:12:01;99658.59;;;39.67;45.61
59110;BME280;44895;47.438;18.978;2023-07-24T06:15:05;99664.53;;;41.01;41.25
59110;BME280;44895;47.438;18.978;2023-07-24T06:18:10;99661.16;;;38.13;48.35
59110;BME280;44895;47.438;18.978;2023-07-24T06:21:13;99648.72;;;40.06;43.03
59110;BME280;44895;47.438;18.978;2023-07-24T06:24:17;99655.94;;;40.07;42.67
59110;BME280;44895;47.438;18.978;2023-07-24T06:27:21;99652.84;;;41.67;40.99
59110;BME280;44895;47.438;18.978;2023-07-24T06:30:25;99658.84;;;41.18;41.30
59110;BME280;44895;47.438;18.978;2023-07-24T06:33:29;99650.78;;;40.88;40.63
59110;BME280;44895;47.438;18.978;2023-07-24T06:36:33;99652.22;;;44.27;36.57
59110;BME280;44895;47.438;18.978;2023-07-24T06:39:36;99657.81;;;44.39;35.48
59110;BME280;44895;47.438;18.978;2023-07-24T06:42:40;99657.31;;;45.24;33.60
59110;BME280;44895;47.438;18.978;2023-07-24T06:45:44;99659.00;;;42.00;38.59
59110;BME280;44895;47.438;18.978;2023-07-24T06:48:48;99676.59;;;40.68;40.12
59110;BME280;44895;47.438;18.978;2023-07-24T06:51:52;99665.31;;;41.02;38.99
59110;BME280;44895;47.438;18.978;2023-07-24T06:54:56;99662.50;;;39.38;43.52
59110;BME280;44895;47.438;18.978;2023-07-24T06:58:01;99659.22;;;36.88;49.13
59110;BME280;44895;47.438;18.978;2023-07-24T07:01:06;99660.66;;;33.98;65.02
59110;BME280;44895;47.438;18.978;2023-07-24T07:04:10;99658.91;;;33.83;75.81
59110;BME280;44895;47.438;18.978;2023-07-24T07:07:14;99652.13;;;32.28;91.92
59110;BME280;44895;47.438;18.978;2023-07-24T07:10:17;99651.97;;;31.84;100.00
59110;BME280;44895;47.438;18.978;2023-07-24T07:13:21;99638.59;;;32.93;90.69
59110;BME280;44895;47.438;18.978;2023-07-24T07:16:25;99645.34;;;32.39;95.41
59110;BME280;44895;47.438;18.978;2023-07-24T07:19:28;99638.31;;;31.05;100.00
59110;BME280;44895;47.438;18.978;2023-07-24T07:22:32;99631.25;;;32.03;100.00
59110;BME280;44895;47.438;18.978;2023-07-24T07:25:36;99636.91;;;31.52;100.00
59110;BME280;44895;47.438;18.978;2023-07-24T07:28:40;99628.28;;;31.72;100.00
59110;BME280;44895;47.438;18.978;2023-07-24T07:31:43;99618.84;;;31.40;100.00
59110;BME280;44895;47.438;18.978;2023-07-24T07:34:47;99628.66;;;30.64;100.00
59110;BME280;44895;47.438;18.978;2023-07-24T07:37:51;99623.25;;;30.40;100.00
59110;BME280;44895;47.438;18.978;2023-07-24T07:40:55;99614.50;;;30.54;100.00
59110;BME280;44895;47.438;18.978;2023-07-24T07:43:59;99617.50;;;31.32;100.00
59110;BME280;44895;47.438;18.978;2023-07-24T07:47:03;99612.28;;;30.62;100.00
59110;BME280;44895;47.438;18.978;2023-07-24T07:50:07;99613.75;;;30.67;100.00
59110;BME280;44895;47.438;18.978;2023-07-24T07:53:11;99620.19;;;29.88;100.00
59110;BME280;44895;47.438;18.978;2023-07-24T07:56:15;99611.81;;;30.34;100.00
59110;BME280;44895;47.438;18.978;2023-07-24T07:59:19;99617.56;;;29.98;100.00
59110;BME280;44895;47.438;18.978;2023-07-24T08:02:22;99615.09;;;30.16;100.00
59110;BME280;44895;47.438;18.978;2023-07-24T08:05:26;99614.47;;;29.75;100.00
59110;BME280;44895;47.438;18.978;2023-07-24T08:08:31;99623.16;;;29.98;100.00
59110;BME280;44895;47.438;18.978;2023-07-24T08:11:35;99613.41;;;29.69;100.00
59110;BME280;44895;47.438;18.978;2023-07-24T08:14:38;99603.22;;;29.96;100.00
59110;BME280;44895;47.438;18.978;2023-07-24T08:17:42;99603.78;;;30.20;100.00
59110;BME280;44895;47.438;18.978;2023-07-24T08:20:45;99607.56;;;30.13;100.00
59110;BME280;44895;47.438;18.978;2023-07-24T08:23:49;99597.47;;;30.32;100.00
59110;BME280;44895;47.438;18.978;2023-07-24T08:26:53;99604.41;;;30.11;100.00
59110;BME280;44895;47.438;18.978;2023-07-24T08:29:56;99622.16;;;29.88;100.00
59110;BME280;44895;47.438;18.978;2023-07-24T08:33:00;99610.97;;;29.55;100.00
59110;BME280;44895;47.438;18.978;2023-07-24T08:36:06;99614.97;;;29.70;100.00
59110;BME280;44895;47.438;18.978;2023-07-24T08:39:10;99606.00;;;29.96;100.00
59110;BME280;44895;47.438;18.978;2023-07-24T08:42:14;99594.81;;;29.96;100.00
59110;BME280;44895;47.438;18.978;2023-07-24T08:45:17;99594.19;;;29.71;100.00
59110;BME280;44895;47.438;18.978;2023-07-24T08:48:22;99596.22;;;30.04;100.00
59110;BME280;44895;47.438;18.978;2023-07-24T08:51:28;99583.06;;;29.68;100.00
59110;BME280;44895;47.438;18.978;2023-07-24T08:54:32;99589.75;;;29.90;100.00
59110;BME280;44895;47.438;18.978;2023-07-24T08:57:38;99580.22;;;30.34;100.00
59110;BME280;44895;47.438;18.978;2023-07-24T09:00:42;99587.91;;;30.00;100.00
59110;BME280;44895;47.438;18.978;2023-07-24T09:03:45;99580.13;;;29.91;100.00
59110;BME280;44895;47.438;18.978;2023-07-24T09:06:49;99569.19;;;30.43;100.00
59110;BME280;44895;47.438;18.978;2023-07-24T09:09:53;99566.63;;;30.19;98.94
59110;BME280;44895;47.438;18.978;2023-07-24T09:12:57;99573.13;;;30.00;97.51
59110;BME280;44895;47.438;18.978;2023-07-24T09:16:01;99560.47;;;30.24;96.17
59110;BME280;44895;47.438;18.978;2023-07-24T09:19:04;99562.25;;;30.18;98.06
59110;BME280;44895;47.438;18.978;2023-07-24T09:22:14;99549.84;;;30.49;93.75
59110;BME280;44895;47.438;18.978;2023-07-24T09:25:18;99555.22;;;30.26;91.65
59110;BME280;44895;47.438;18.978;2023-07-24T09:28:22;99563.19;;;30.28;86.00
59110;BME280;44895;47.438;18.978;2023-07-24T09:31:38;99556.03;;;30.40;83.33
59110;BME280;44895;47.438;18.978;2023-07-24T09:34:42;99554.09;;;30.53;89.71
59110;BME280;44895;47.438;18.978;2023-07-24T09:37:46;99554.47;;;30.39;88.61
59110;BME280;44895;47.438;18.978;2023-07-24T09:40:52;99549.56;;;30.43;79.76
59110;BME280;44895;47.438;18.978;2023-07-24T09:43:59;99538.53;;;30.23;78.95
59110;BME280;44895;47.438;18.978;2023-07-24T09:47:03;99539.88;;;30.31;80.10
59110;BME280;44895;47.438;18.978;2023-07-24T09:50:07;99523.44;;;30.33;82.68
59110;BME280;44895;47.438;18.978;2023-07-24T09:53:51;99523.03;;;30.48;80.31
59110;BME280;44895;47.438;18.978;2023-07-24T09:56:57;99516.72;;;30.31;74.62
59110;BME280;44895;47.438;18.978;2023-07-24T10:00:02;99515.97;;;30.43;73.59
59110;BME280;44895;47.438;18.978;2023-07-24T10:03:08;99510.34;;;30.72;70.22
59110;BME280;44895;47.438;18.978;2023-07-24T10:06:12;99509.31;;;30.79;68.39
59110;BME280;44895;47.438;18.978;2023-07-24T10:09:18;99506.31;;;30.99;68.80
59110;BME280;44895;47.438;18.978;2023-07-24T10:12:25;99497.78;;;30.77;68.14
59110;BME280;44895;47.438;18.978;2023-07-24T10:15:32;99496.44;;;30.82;67.68
59110;BME280;44895;47.438;18.978;2023-07-24T10:18:43;99489.72;;;30.79;64.39
59110;BME280;44895;47.438;18.978;2023-07-24T10:21:48;99486.13;;;30.91;63.83
59110;BME280;44895;47.438;18.978;2023-07-24T10:24:55;99479.09;;;31.00;63.45
59110;BME280;44895;47.438;18.978;2023-07-24T10:28:03;99475.81;;;31.27;65.64
59110;BME280;44895;47.438;18.978;2023-07-24T10:31:22;99467.78;;;31.16;59.30
59110;BME280;44895;47.438;18.978;2023-07-24T10:34:36;99464.06;;;31.19;60.67
59110;BME280;44895;47.438;18.978;2023-07-24T10:37:40;99461.78;;;31.40;60.52
59110;BME280;44895;47.438;18.978;2023-07-24T10:40:46;99462.91;;;31.30;57.92
59110;BME280;44895;47.438;18.978;2023-07-24T10:43:51;99458.56;;;31.03;59.96
59110;BME280;44895;47.438;18.978;2023-07-24T10:46:55;99466.97;;;31.16;60.17
59110;BME280;44895;47.438;18.978;2023-07-24T10:49:59;99452.28;;;31.25;59.56
59110;BME280;44895;47.438;18.978;2023-07-24T10:53:05;99455.16;;;31.34;56.46
